Time;durP1;ratioP1;P1;durP2;ratioP2;P2;SDS_P1;SDS_P2;PMS_P1;PMS_P2;Temp;Humidity;BMP_temperature;BMP_pressure;BME280_temperature;BME280_humidity;BME280_pressure;Samples;Min_cycle;Max_cycle;Signal;HPM_P1;HPM_P2
2022/08/26 00:01:55;;;;;;;22.47;6.40;;;;;;;18.03;100.00;94639.69;5077189;28;20059;-66
2022/08/26 00:04:23;;;;;;;22.85;6.05;;;;;;;18.01;100.00;94637.34;5076374;28;20094;-66
2022/08/26 00:06:53;;;;;;;22.23;6.40;;;;;;;17.96;100.00;94640.81;5079806;28;20047;-68
2022/08/26 00:09:22;;;;;;;14.93;6.93;;;;;;;17.92;100.00;94633.75;5075662;28;20040;-66
2022/08/26 00:11:51;;;;;;;26.60;6.90;;;;;;;17.86;100.00;94638.31;5077318;28;20842;-66
2022/08/26 00:14:18;;;;;;;21.20;7.65;;;;;;;17.86;100.00;94634.88;5059462;28;20052;-67
2022/08/26 00:16:45;;;;;;;19.65;5.95;;;;;;;17.86;100.00;94634.88;5075125;28;20051;-67
2022/08/26 00:19:17;;;;;;;20.38;5.25;;;;;;;17.85;100.00;94634.09;5078766;28;20052;-66
2022/08/26 00:21:46;;;;;;;12.88;5.00;;;;;;;17.82;100.00;94633.84;5074562;28;20054;-67
2022/08/26 00:24:15;;;;;;;13.80;6.53;;;;;;;17.85;100.00;94633.28;5074274;28;20130;-66
2022/08/26 00:26:42;;;;;;;17.98;7.07;;;;;;;17.82;100.00;94625.94;5077389;28;20131;-66
2022/08/26 00:29:11;;;;;;;28.38;5.82;;;;;;;17.82;100.00;94639.09;5078138;28;20059;-67
2022/08/26 00:31:39;;;;;;;21.70;6.93;;;;;;;17.81;100.00;94621.72;5076790;28;20126;-66
2022/08/26 00:34:07;;;;;;;17.65;6.78;;;;;;;17.82;100.00;94628.56;5079153;28;20109;-66
2022/08/26 00:36:38;;;;;;;20.35;6.07;;;;;;;17.83;100.00;94624.88;5074232;28;20109;-66
2022/08/26 00:39:06;;;;;;;19.50;6.07;;;;;;;17.83;100.00;94622.25;5076329;28;20044;-66
2022/08/26 00:41:34;;;;;;;20.90;6.30;;;;;;;17.87;100.00;94615.38;5076957;28;20051;-66
2022/08/26 00:44:01;;;;;;;17.00;6.13;;;;;;;17.88;100.00;94624.81;5078562;28;20185;-66
2022/08/26 00:46:32;;;;;;;25.85;6.15;;;;;;;17.88;100.00;94624.81;5075593;28;20051;-66
2022/08/26 00:49:06;;;;;;;22.23;6.47;;;;;;;17.88;100.00;94624.81;5075133;28;20076;-67
2022/08/26 00:51:51;;;;;;;40.10;6.32;;;;;;;17.86;100.00;94619.06;5075343;28;20055;-66
2022/08/26 00:54:21;;;;;;;20.50;5.63;;;;;;;17.90;100.00;94625.34;5072574;28;20433;-67
2022/08/26 00:56:58;;;;;;;18.92;5.47;;;;;;;17.91;100.00;94616.38;5075269;28;20047;-67
2022/08/26 00:59:28;;;;;;;20.15;7.10;;;;;;;17.91;100.00;94617.16;5076343;28;20039;-67
2022/08/26 01:01:59;;;;;;;15.23;5.53;;;;;;;17.88;100.00;94611.66;5073627;28;20102;-66
2022/08/26 01:04:30;;;;;;;27.58;5.53;;;;;;;17.88;100.00;94616.94;5072143;28;20047;-66
2022/08/26 01:06:59;;;;;;;16.58;5.63;;;;;;;17.84;100.00;94605.38;5078289;28;20040;-67
2022/08/26 01:09:26;;;;;;;15.80;6.03;;;;;;;17.82;100.00;94607.50;5075181;28;21479;-67
2022/08/26 01:11:56;;;;;;;20.40;5.75;;;;;;;17.75;100.00;94597.28;5075955;28;20040;-67
2022/08/26 01:14:25;;;;;;;19.42;5.90;;;;;;;17.67;100.00;94601.34;5075722;28;20044;-66
2022/08/26 01:16:53;;;;;;;21.50;6.00;;;;;;;17.57;100.00;94586.44;5076966;28;20047;-66
2022/08/26 01:19:31;;;;;;;22.55;4.97;;;;;;;17.55;100.00;94593.03;5076011;28;20052;-67
2022/08/26 01:22:04;;;;;;;18.73;6.65;;;;;;;17.48;100.00;94593.38;5072992;28;20040;-67
2022/08/26 01:24:31;;;;;;;20.48;5.95;;;;;;;17.46;100.00;94594.72;5050365;28;20833;-66
2022/08/26 01:27:04;;;;;;;24.08;6.80;;;;;;;17.43;100.00;94600.53;5077484;28;20051;-66
2022/08/26 01:29:33;;;;;;;25.77;5.68;;;;;;;17.43;100.00;94605.81;5076010;28;20044;-66
2022/08/26 01:32:03;;;;;;;21.05;5.80;;;;;;;17.45;100.00;94595.78;5060843;28;20055;-66
2022/08/26 01:34:35;;;;;;;18.90;5.72;;;;;;;17.57;100.00;94604.06;5075458;28;20039;-67
2022/08/26 01:37:15;;;;;;;20.05;6.88;;;;;;;17.59;100.00;94604.56;5075949;28;20044;-66
2022/08/26 01:39:49;;;;;;;19.88;5.95;;;;;;;17.59;100.00;94604.56;5059317;28;20073;-66
2022/08/26 01:42:19;;;;;;;46.40;7.10;;;;;;;17.59;100.00;94609.84;5075545;28;20732;-66
2022/08/26 01:44:58;;;;;;;23.73;7.18;;;;;;;17.54;100.00;94612.56;5078488;28;20116;-66
2022/08/26 01:47:28;;;;;;;15.20;6.18;;;;;;;17.44;100.00;94617.91;5077460;28;20044;-65
2022/08/26 01:49:58;;;;;;;28.98;8.52;;;;;;;17.42;100.00;94614.78;5078530;28;20539;-66
2022/08/26 01:52:28;;;;;;;16.30;8.10;;;;;;;17.41;100.00;94613.19;5075670;28;20048;-67
2022/08/26 01:54:57;;;;;;;22.02;6.50;;;;;;;17.37;100.00;94603.22;5080153;28;20051;-67
2022/08/26 01:57:26;;;;;;;21.17;6.32;;;;;;;17.32;100.00;94605.94;5075601;28;20067;-66
2022/08/26 01:59:56;;;;;;;22.17;7.90;;;;;;;17.26;100.00;94607.03;5078032;28;20028;-66
2022/08/26 02:02:23;;;;;;;24.83;7.35;;;;;;;17.22;100.00;94611.28;5074220;28;20040;-67
2022/08/26 02:05:00;;;;;;;20.05;7.80;;;;;;;17.15;100.00;94611.59;5077720;28;20047;-67
2022/08/26 02:07:28;;;;;;;21.70;6.88;;;;;;;17.10;100.00;94608.22;5058932;28;20040;-67
2022/08/26 02:09:55;;;;;;;23.38;7.55;;;;;;;17.19;100.00;94612.59;5078770;28;20055;-66
2022/08/26 02:12:24;;;;;;;21.15;8.85;;;;;;;17.20;100.00;94618.69;5070625;28;20051;-66
2022/08/26 02:14:57;;;;;;;24.02;7.53;;;;;;;17.18;100.00;94610.28;5049316;28;20143;-66
2022/08/26 02:17:32;;;;;;;21.05;7.75;;;;;;;17.16;100.00;94607.13;5072616;28;20036;-66
2022/08/26 02:20:01;;;;;;;22.40;7.50;;;;;;;17.11;100.00;94609.81;5071804;28;20062;-67
2022/08/26 02:22:29;;;;;;;30.85;7.32;;;;;;;17.08;100.00;94605.09;5074005;28;20641;-67
2022/08/26 02:25:00;;;;;;;22.52;7.00;;;;;;;17.13;100.00;94608.47;5063739;28;20048;-66
2022/08/26 02:27:32;;;;;;;29.98;7.75;;;;;;;17.17;100.00;94613.97;5080650;28;20070;-66
2022/08/26 02:30:16;;;;;;;31.15;7.55;;;;;;;17.19;100.00;94612.59;5078173;28;20753;-66
2022/08/26 02:32:44;;;;;;;13.82;7.30;;;;;;;17.13;100.00;94602.44;5080090;28;20048;-66
2022/08/26 02:35:14;;;;;;;29.60;8.00;;;;;;;16.96;100.00;94572.06;5081243;28;20830;-67
2022/08/26 02:37:47;;;;;;;17.13;6.65;;;;;;;17.07;100.00;94595.63;5077415;28;20071;-66
2022/08/26 02:40:19;;;;;;;19.35;7.60;;;;;;;17.05;100.00;94595.94;5079864;28;20032;-67
2022/08/26 02:42:47;;;;;;;28.83;8.27;;;;;;;17.05;100.00;94595.94;5077950;28;20094;-66
2022/08/26 02:45:14;;;;;;;20.55;7.97;;;;;;;17.00;100.00;94594.09;5050960;28;20041;-66
2022/08/26 02:47:51;;;;;;;29.83;8.15;;;;;;;16.99;100.00;94591.75;5079254;28;20448;-66
2022/08/26 02:50:19;;;;;;;18.30;8.18;;;;;;;16.99;100.00;94595.16;5077577;28;20040;-66
2022/08/26 02:52:47;;;;;;;20.70;8.70;;;;;;;16.94;100.00;94595.22;5079196;28;20055;-66
2022/08/26 02:55:14;;;;;;;19.08;8.13;;;;;;;16.90;100.00;94594.19;5076772;28;20135;-65
2022/08/26 02:57:41;;;;;;;28.20;8.60;;;;;;;16.82;100.00;94586.88;5082346;28;20118;-66
2022/08/26 03:00:10;;;;;;;17.10;8.07;;;;;;;16.84;100.00;94597.94;5077526;28;20040;-66
2022/08/26 03:02:37;;;;;;;33.63;8.00;;;;;;;16.83;100.00;94593.72;5079232;28;20036;-66
2022/08/26 03:05:05;;;;;;;22.17;7.43;;;;;;;16.82;100.00;94597.41;5076476;28;20056;-66
2022/08/26 03:07:32;;;;;;;18.35;7.60;;;;;;;16.81;100.00;94601.06;5077202;28;20055;-66
2022/08/26 03:09:59;;;;;;;20.40;8.32;;;;;;;16.72;100.00;94586.94;5079623;28;20048;-66
2022/08/26 03:12:33;;;;;;;22.02;7.90;;;;;;;16.81;100.00;94601.84;5077545;28;20117;-66
2022/08/26 03:15:00;;;;;;;16.95;7.57;;;;;;;16.87;100.00;94600.03;5078472;28;20056;-66
2022/08/26 03:17:27;;;;;;;20.50;7.55;;;;;;;16.89;100.00;94602.34;5075452;28;20044;-66
2022/08/26 03:19:54;;;;;;;34.97;8.07;;;;;;;16.91;100.00;94605.50;5073712;28;20571;-66
2022/08/26 03:22:24;;;;;;;23.45;8.18;;;;;;;16.90;100.00;94604.72;5076201;28;20044;-66
2022/08/26 03:24:51;;;;;;;27.35;9.52;;;;;;;16.93;100.00;94606.81;5079952;28;20797;-66
2022/08/26 03:27:18;;;;;;;16.30;7.85;;;;;;;17.00;100.00;94609.13;5075858;28;20052;-66
2022/08/26 03:32:30;;;;;;;17.27;7.93;;;;;;;17.17;100.00;94603.44;5076549;28;20040;-65
2022/08/26 03:34:57;;;;;;;18.95;7.75;;;;;;;17.18;100.00;94595.25;5080919;28;20037;-65
2022/08/26 03:37:24;;;;;;;20.23;7.60;;;;;;;17.17;100.00;94592.91;5078690;28;20040;-65
2022/08/26 03:39:51;;;;;;;26.17;8.02;;;;;;;17.28;100.00;94599.63;5077799;28;20043;-64
2022/08/26 03:42:18;;;;;;;18.05;7.97;;;;;;;17.31;100.00;94599.09;5074817;28;20043;-65
2022/08/26 03:44:47;;;;;;;23.35;7.97;;;;;;;17.36;100.00;94601.66;5074069;28;20629;-65
2022/08/26 03:47:14;;;;;;;29.83;7.60;;;;;;;17.41;100.00;94602.66;5077979;28;20051;-65
2022/08/26 03:49:41;;;;;;;29.30;8.65;;;;;;;17.46;100.00;94605.25;5056186;28;20048;-64
2022/08/26 03:52:09;;;;;;;20.67;7.03;;;;;;;17.48;100.00;94603.13;5076141;28;20056;-65
2022/08/26 03:54:36;;;;;;;17.80;7.78;;;;;;;17.48;100.00;94611.03;5076565;28;20895;-65
2022/08/26 03:57:03;;;;;;;20.10;8.60;;;;;;;17.50;100.00;94617.59;5055177;28;20044;-65
2022/08/26 03:59:31;;;;;;;19.10;8.75;;;;;;;17.36;100.00;94591.13;5071210;28;20718;-65
2022/08/26 04:01:57;;;;;;;18.25;7.93;;;;;;;17.51;100.00;94613.88;5079856;28;20051;-65
2022/08/26 04:04:24;;;;;;;17.00;8.07;;;;;;;17.47;100.00;94612.09;5076954;28;20574;-65
2022/08/26 04:06:59;;;;;;;18.38;8.70;;;;;;;17.48;100.00;94608.38;5076734;28;20303;-65
2022/08/26 04:09:26;;;;;;;23.13;9.45;;;;;;;17.41;100.00;94602.66;5075317;28;20642;-65
2022/08/26 04:11:54;;;;;;;27.40;9.65;;;;;;;17.38;100.00;94599.53;5079363;28;20528;-65
2022/08/26 04:14:24;;;;;;;28.02;8.20;;;;;;;17.41;100.00;94597.41;5075686;28;20701;-65
2022/08/26 04:16:52;;;;;;;21.58;9.10;;;;;;;17.37;100.00;94597.97;5078959;28;20048;-65
2022/08/26 04:19:22;;;;;;;25.05;10.05;;;;;;;17.42;100.00;94602.41;5074931;28;20128;-65
2022/08/26 04:21:51;;;;;;;21.15;8.45;;;;;;;17.44;100.00;94607.38;5077073;28;20342;-65
2022/08/26 04:24:22;;;;;;;23.88;9.07;;;;;;;17.45;100.00;94601.03;5077089;28;20048;-65
2022/08/26 04:26:50;;;;;;;25.55;8.82;;;;;;;17.49;100.00;94599.44;5075108;28;20105;-65
2022/08/26 04:29:22;;;;;;;23.80;8.70;;;;;;;17.57;100.00;94602.25;5059243;28;20048;-65
2022/08/26 04:31:50;;;;;;;17.83;9.18;;;;;;;17.61;100.00;94597.22;5074495;28;20032;-64
2022/08/26 04:34:23;;;;;;;25.73;8.80;;;;;;;17.60;100.00;94598.25;5075122;28;20040;-65
2022/08/26 04:36:53;;;;;;;22.45;9.07;;;;;;;17.62;100.00;94593.50;5073598;28;20134;-65
2022/08/26 04:39:19;;;;;;;26.67;8.05;;;;;;;17.76;100.00;94594.38;5079429;28;20503;-66
2022/08/26 04:41:47;;;;;;;18.42;8.65;;;;;;;17.77;100.00;94601.22;5076359;28;20070;-66
2022/08/26 04:44:17;;;;;;;18.55;8.98;;;;;;;17.81;100.00;94595.38;5077430;28;20123;-65
2022/08/26 04:46:44;;;;;;;14.52;8.07;;;;;;;17.88;100.00;94603.75;5059743;28;20437;-67
2022/08/26 04:49:11;;;;;;;25.73;9.55;;;;;;;17.94;100.00;94605.28;5075234;28;20047;-65
2022/08/26 04:51:39;;;;;;;15.95;7.57;;;;;;;17.98;100.00;94606.28;5075045;28;20046;-66
2022/08/26 04:54:06;;;;;;;16.85;8.50;;;;;;;18.04;100.00;94610.44;5076003;28;20037;-66
2022/08/26 04:56:38;;;;;;;20.88;7.70;;;;;;;18.10;100.00;94601.38;5073454;28;20039;-66
2022/08/26 04:59:07;;;;;;;22.90;7.47;;;;;;;18.17;100.00;94610.78;5075040;28;20052;-66
2022/08/26 05:01:47;;;;;;;25.98;6.97;;;;;;;18.24;100.00;94608.56;5074826;28;20486;-66
2022/08/26 05:04:16;;;;;;;23.20;6.25;;;;;;;18.26;100.00;94617.00;5075927;28;20054;-66
2022/08/26 05:06:48;;;;;;;28.48;7.65;;;;;;;18.24;100.00;94619.13;5073187;28;20036;-66
2022/08/26 05:09:17;;;;;;;17.98;7.78;;;;;;;18.22;100.00;94615.97;5073026;28;20047;-66
2022/08/26 05:11:44;;;;;;;19.25;5.95;;;;;;;18.33;100.00;94625.34;5079284;28;20659;-67
2022/08/26 05:14:19;;;;;;;22.00;7.65;;;;;;;18.38;100.00;94624.47;5076031;28;20063;-66
2022/08/26 05:16:45;;;;;;;18.15;6.32;;;;;;;18.45;100.00;94620.41;5076426;28;20132;-66
2022/08/26 05:19:15;;;;;;;28.20;7.43;;;;;;;18.49;100.00;94621.44;5075367;28;20783;-67
2022/08/26 05:21:45;;;;;;;18.27;7.40;;;;;;;18.60;100.00;94622.06;5073932;28;20032;-67
2022/08/26 05:24:13;;;;;;;15.13;6.82;;;;;;;18.62;100.00;94619.13;5074005;28;20052;-67
2022/08/26 05:26:40;;;;;;;21.05;6.45;;;;;;;18.62;100.00;94614.66;5076611;28;20040;-66
2022/08/26 05:29:06;;;;;;;17.73;6.07;;;;;;;18.72;100.00;94624.25;5073223;28;20932;-64
2022/08/26 05:31:34;;;;;;;21.00;6.50;;;;;;;18.85;100.00;94618.28;5075460;28;20147;-64
2022/08/26 05:34:03;;;;;;;18.83;6.97;;;;;;;19.03;100.00;94623.78;5074924;28;20036;-65
2022/08/26 05:36:33;;;;;;;22.10;6.38;;;;;;;18.90;100.00;94610.25;5075685;28;20048;-65
2022/08/26 05:39:03;;;;;;;19.60;6.35;;;;;;;18.98;100.00;94631.78;5075678;28;20670;-65
2022/08/26 05:41:33;;;;;;;24.65;7.85;;;;;;;19.06;100.00;94628.50;5073110;28;20690;-65
2022/08/26 05:44:05;;;;;;;20.52;6.30;;;;;;;19.13;100.00;94628.91;5060384;28;20139;-67
2022/08/26 05:46:33;;;;;;;21.98;5.60;;;;;;;19.09;100.00;94628.72;5074414;28;20051;-65
2022/08/26 05:49:02;;;;;;;20.48;5.68;;;;;;;19.14;100.00;94630.50;5076211;28;20059;-64
2022/08/26 05:51:29;;;;;;;25.33;5.97;;;;;;;19.20;100.00;94634.59;5075607;28;20036;-67
2022/08/26 05:53:56;;;;;;;33.45;5.97;;;;;;;19.29;100.00;94642.66;5055595;28;20051;-68
2022/08/26 05:56:26;;;;;;;33.88;7.28;;;;;;;19.35;100.00;94636.19;5071697;28;20059;-66
2022/08/26 05:58:55;;;;;;;23.35;6.63;;;;;;;19.41;100.00;94631.59;5080532;28;20069;-66
2022/08/26 06:01:27;;;;;;;25.40;6.63;;;;;;;19.47;100.00;94639.16;5079293;28;20721;-65
2022/08/26 06:03:59;;;;;;;23.15;8.00;;;;;;;19.42;100.00;94631.31;5077666;28;20048;-65
2022/08/26 06:06:33;;;;;;;22.10;6.10;;;;;;;19.46;100.00;94642.09;5076671;28;20051;-65
2022/08/26 06:09:04;;;;;;;24.45;6.60;;;;;;;19.47;100.00;94641.03;5077438;28;20044;-65
2022/08/26 06:11:32;;;;;;;22.77;6.22;;;;;;;19.36;100.00;94647.56;5077594;28;20049;-65
2022/08/26 06:14:03;;;;;;;19.00;6.13;;;;;;;19.36;100.00;94642.28;5079107;28;20048;-65
2022/08/26 06:16:33;;;;;;;29.48;7.13;;;;;;;19.41;100.00;94650.09;5076898;28;20040;-65
2022/08/26 06:19:02;;;;;;;23.80;6.70;;;;;;;19.45;100.00;94640.53;5076986;28;20161;-65
2022/08/26 06:21:32;;;;;;;19.35;6.70;;;;;;;19.48;100.00;94645.22;5081060;28;20625;-65
2022/08/26 06:27:00;;;;;;;28.20;7.40;;;;;;;19.67;100.00;94651.22;5079278;28;20056;-65
2022/08/26 06:29:29;;;;;;;17.25;5.32;;;;;;;19.65;100.00;94650.72;5075672;28;20745;-65
2022/08/26 06:31:57;;;;;;;22.88;5.40;;;;;;;19.71;100.00;94658.56;5074647;28;20033;-65
2022/08/26 06:34:27;;;;;;;43.13;7.93;;;;;;;19.73;100.00;94661.69;5076611;28;20047;-65
2022/08/26 06:36:58;;;;;;;21.10;5.65;;;;;;;19.77;100.00;94657.41;5081696;28;20129;-64
2022/08/26 06:39:27;;;;;;;16.88;6.95;;;;;;;19.84;100.00;94660.44;5078602;28;20036;-66
2022/08/26 06:41:58;;;;;;;24.13;6.13;;;;;;;19.88;100.00;94655.34;5079470;28;20048;-66
2022/08/26 06:44:25;;;;;;;26.77;6.10;;;;;;;19.99;100.00;94654.09;5077837;28;20055;-65
2022/08/26 06:46:52;;;;;;;19.77;7.53;;;;;;;20.02;100.00;94664.88;5076022;28;20060;-66
2022/08/26 06:49:20;;;;;;;23.83;6.10;;;;;;;20.07;100.00;94671.13;5074988;28;20048;-66
2022/08/26 06:51:59;;;;;;;22.55;6.60;;;;;;;19.98;100.00;94669.16;5079367;28;21470;-66
2022/08/26 06:54:29;;;;;;;29.13;6.68;;;;;;;20.01;100.00;94665.94;5076306;28;20284;-66
2022/08/26 06:56:56;;;;;;;28.05;6.20;;;;;;;20.02;100.00;94659.59;5077643;28;20036;-66
2022/08/26 06:59:24;;;;;;;18.88;5.38;;;;;;;20.16;100.00;94669.34;5079599;28;20055;-65
2022/08/26 07:01:51;;;;;;;14.65;5.10;;;;;;;20.28;100.00;94669.66;5076899;28;20040;-66
2022/08/26 07:04:19;;;;;;;19.60;5.97;;;;;;;20.42;100.00;94665.13;5080544;28;20544;-66
2022/08/26 07:06:50;;;;;;;22.15;6.00;;;;;;;20.41;100.00;94649.53;5078082;28;20450;-67
2022/08/26 07:09:20;;;;;;;26.92;6.03;;;;;;;20.49;100.00;94655.97;5079080;28;20047;-66
2022/08/26 07:11:48;;;;;;;18.63;5.90;;;;;;;20.55;100.00;94660.09;5075988;28;20048;-66
2022/08/26 07:14:16;;;;;;;33.30;6.53;;;;;;;20.57;100.00;94669.28;5079255;28;20028;-66
2022/08/26 07:16:48;;;;;;;27.13;6.43;;;;;;;20.66;100.00;94671.28;5074380;28;20043;-66
2022/08/26 07:19:17;;;;;;;23.80;5.88;;;;;;;20.78;100.00;94674.97;5076175;28;20052;-66
2022/08/26 07:22:00;;;;;;;22.13;5.28;;;;;;;20.97;100.00;94682.72;5075067;28;20055;-66
2022/08/26 07:24:28;;;;;;;24.50;6.35;;;;;;;21.00;100.00;94676.06;5077319;28;20051;-66
2022/08/26 07:27:01;;;;;;;20.98;5.57;;;;;;;21.17;100.00;94681.47;5075423;28;20036;-67
2022/08/26 07:29:31;;;;;;;23.02;6.20;;;;;;;21.45;100.00;94686.66;5079493;28;20089;-67
2022/08/26 07:31:58;;;;;;;18.10;6.07;;;;;;;21.67;100.00;94679.78;5075813;28;20036;-68
2022/08/26 07:34:26;;;;;;;20.05;6.00;;;;;;;21.88;97.76;94683.44;5073603;28;20055;-65
2022/08/26 07:36:53;;;;;;;15.95;5.72;;;;;;;22.14;97.48;94690.72;5080885;28;20051;-66
2022/08/26 07:39:21;;;;;;;29.83;6.78;;;;;;;22.45;96.60;94689.88;5078493;28;20055;-66
2022/08/26 07:41:49;;;;;;;46.53;6.85;;;;;;;22.73;94.87;94690.41;5077722;28;20043;-66
2022/08/26 07:44:16;;;;;;;20.23;6.03;;;;;;;22.94;92.33;94690.56;5075045;28;20036;-66
2022/08/26 07:46:44;;;;;;;18.98;4.97;;;;;;;23.03;92.47;94693.19;5078545;28;20701;-67
2022/08/26 07:49:20;;;;;;;31.38;6.18;;;;;;;23.15;92.88;94700.59;5078670;28;20540;-66
2022/08/26 07:51:48;;;;;;;23.20;5.38;;;;;;;23.35;92.04;94693.84;5081706;28;20532;-67
2022/08/26 07:54:15;;;;;;;23.67;6.22;;;;;;;23.52;91.32;94698.38;5076403;28;20070;-66
2022/08/26 07:56:43;;;;;;;19.67;5.80;;;;;;;23.66;89.62;94693.63;5078770;28;20043;-66
2022/08/26 07:59:11;;;;;;;24.00;5.43;;;;;;;23.72;87.28;94695.00;5077752;28;20044;-67
2022/08/26 08:01:40;;;;;;;26.20;5.30;;;;;;;23.92;86.93;94684.81;5078217;28;20043;-67
2022/08/26 08:04:16;;;;;;;19.67;5.50;;;;;;;23.99;87.08;94698.41;5078388;28;20145;-67
2022/08/26 08:06:44;;;;;;;31.48;5.93;;;;;;;24.15;79.17;94696.75;5077060;28;20091;-66
2022/08/26 08:09:13;;;;;;;24.55;5.60;;;;;;;24.18;78.15;94696.13;5068063;28;20127;-67
2022/08/26 08:11:44;;;;;;;19.75;5.57;;;;;;;24.35;78.05;94702.47;5077517;28;20059;-68
2022/08/26 08:14:12;;;;;;;15.88;6.38;;;;;;;24.48;76.73;94693.44;5074602;28;20048;-67
2022/08/26 08:16:40;;;;;;;25.55;5.38;;;;;;;24.56;74.35;94684.69;5075676;28;20044;-67
2022/08/26 08:19:13;;;;;;;37.58;7.55;;;;;;;24.69;73.42;94687.41;5077504;28;20044;-67
2022/08/26 08:21:42;;;;;;;16.80;5.35;;;;;;;24.65;73.09;94689.16;5075846;28;20028;-68
2022/08/26 08:24:10;;;;;;;24.65;4.97;;;;;;;24.84;73.95;94681.50;5079927;28;20472;-68
2022/08/26 08:26:38;;;;;;;21.83;4.50;;;;;;;24.97;71.65;94680.47;5074684;28;20047;-68
2022/08/26 08:29:06;;;;;;;28.17;6.63;;;;;;;25.05;72.57;94683.34;5078492;28;20048;-68
2022/08/26 08:31:34;;;;;;;19.38;5.88;;;;;;;25.10;70.06;94683.16;5070391;28;20052;-68
2022/08/26 08:34:21;;;;;;;27.75;4.63;;;;;;;24.97;69.11;94683.13;5076843;28;20044;-68
2022/08/26 08:36:49;;;;;;;30.58;5.90;;;;;;;24.86;68.69;94687.28;5075619;28;20051;-67
2022/08/26 08:39:19;;;;;;;25.05;5.00;;;;;;;24.77;68.27;94692.66;5067816;28;20040;-67
2022/08/26 08:41:58;;;;;;;31.48;5.22;;;;;;;24.99;67.82;94675.59;5060403;28;20040;-67
2022/08/26 08:44:25;;;;;;;21.52;4.07;;;;;;;25.10;68.52;94672.50;5076577;28;20036;-68
2022/08/26 08:47:18;;;;;;;27.25;3.88;;;;;;;25.33;68.03;94675.63;5076997;28;20038;-68
2022/08/26 08:49:46;;;;;;;20.23;5.35;;;;;;;25.66;65.43;94664.94;5079892;28;20519;-70
2022/08/26 08:52:28;;;;;;;29.38;4.30;;;;;;;25.99;62.46;94669.44;5073757;28;20043;-68
2022/08/26 08:54:56;;;;;;;17.17;3.88;;;;;;;26.15;59.51;94655.44;5077561;28;20044;-69
2022/08/26 08:57:54;;;;;;;25.92;4.63;;;;;;;26.22;57.52;94661.00;5059143;28;20040;-68
2022/08/26 09:00:36;;;;;;;16.13;4.05;;;;;;;26.31;57.03;94659.00;5074012;28;20032;-68
2022/08/26 09:03:46;;;;;;;20.23;4.35;;;;;;;26.54;55.64;94655.84;5072801;28;20055;-67
2022/08/26 09:06:17;;;;;;;16.55;3.72;;;;;;;26.64;55.03;94660.75;5071659;28;20870;-67
2022/08/26 09:08:47;;;;;;;19.90;4.13;;;;;;;26.65;55.52;94659.63;5073601;28;20186;-68
2022/08/26 09:11:18;;;;;;;14.48;3.92;;;;;;;26.34;53.76;94658.31;5072830;28;20048;-67
2022/08/26 09:13:52;;;;;;;29.75;4.28;;;;;;;26.42;56.05;94660.09;5069743;28;20036;-68
2022/08/26 09:16:23;;;;;;;14.48;4.20;;;;;;;26.54;55.51;94661.19;5072850;28;20513;-68
2022/08/26 09:19:10;;;;;;;24.70;4.00;;;;;;;26.97;51.52;94663.22;5058501;28;20098;-68
2022/08/26 09:21:37;;;;;;;25.73;4.38;;;;;;;27.16;49.57;94659.91;5076069;28;20055;-69
2022/08/26 09:24:05;;;;;;;27.23;4.68;;;;;;;27.46;51.39;94662.28;5076583;28;20048;-70
2022/08/26 09:26:37;;;;;;;14.00;4.93;;;;;;;27.76;49.17;94665.31;5077373;28;20475;-66
2022/08/26 09:29:10;;;;;;;18.63;4.07;;;;;;;27.57;45.70;94663.31;5070024;28;20033;-68
2022/08/26 09:31:40;;;;;;;23.25;4.50;;;;;;;27.54;44.21;94655.97;5077138;28;20109;-67
2022/08/26 09:34:13;;;;;;;13.85;3.65;;;;;;;27.64;42.50;94655.47;5056747;28;20127;-67
2022/08/26 09:36:54;;;;;;;14.20;3.38;;;;;;;27.54;42.79;94647.94;5075973;28;20482;-66
2022/08/26 09:39:21;;;;;;;13.52;3.90;;;;;;;27.79;43.70;94645.13;5074339;28;20048;-67
2022/08/26 09:42:05;;;;;;;8.35;3.10;;;;;;;27.97;42.95;94643.66;5076436;28;20051;-66
2022/08/26 09:44:34;;;;;;;17.73;3.60;;;;;;;27.90;43.92;94653.41;5076550;28;20048;-67
2022/08/26 09:47:04;;;;;;;23.60;3.88;;;;;;;28.12;41.21;94649.34;5070969;28;20048;-69
2022/08/26 09:49:33;;;;;;;8.73;4.35;;;;;;;28.03;42.11;94647.63;5074181;28;20447;-67
2022/08/26 09:52:14;;;;;;;28.23;5.43;;;;;;;28.20;41.16;94646.50;5068386;28;20039;-67
2022/08/26 09:54:43;;;;;;;12.23;4.53;;;;;;;28.37;41.34;94647.25;5069640;28;20663;-67
2022/08/26 09:57:31;;;;;;;11.27;4.30;;;;;;;28.45;40.67;94645.50;5074419;28;20937;-67
2022/08/26 10:00:00;;;;;;;14.63;4.15;;;;;;;28.39;40.72;94648.44;5077030;28;20831;-67
2022/08/26 10:02:40;;;;;;;15.98;5.20;;;;;;;28.39;42.19;94653.78;5072972;28;20040;-67
2022/08/26 10:05:17;;;;;;;9.35;3.95;;;;;;;28.31;40.91;94657.44;5074508;28;20229;-67
2022/08/26 10:07:48;;;;;;;10.75;4.40;;;;;;;28.27;40.66;94651.25;5052971;28;20041;-68
2022/08/26 10:10:34;;;;;;;11.02;4.30;;;;;;;28.32;40.32;94647.50;5076765;28;20099;-68
2022/08/26 10:13:06;;;;;;;13.02;3.97;;;;;;;28.60;40.92;94647.41;5073515;28;20059;-68
2022/08/26 10:15:59;;;;;;;19.17;5.60;;;;;;;29.04;38.93;94641.75;5078080;28;20048;-68
2022/08/26 10:18:34;;;;;;;16.30;5.28;;;;;;;29.31;37.96;94645.34;5072368;28;20051;-68
2022/08/26 10:21:22;;;;;;;18.90;4.72;;;;;;;29.42;37.08;94632.13;5077521;28;20052;-68
2022/08/26 10:23:52;;;;;;;26.55;5.55;;;;;;;29.83;37.14;94637.84;5073994;28;20040;-68
2022/08/26 10:26:52;;;;;;;15.23;5.13;;;;;;;29.88;35.41;94642.91;5076907;28;20056;-68
2022/08/26 10:29:30;;;;;;;15.77;6.22;;;;;;;29.73;35.92;94641.13;5020700;28;20097;-68
2022/08/26 10:31:59;;;;;;;11.88;4.95;;;;;;;29.68;36.24;94649.47;5076657;28;20028;-68
2022/08/26 10:34:31;;;;;;;18.48;5.40;;;;;;;29.70;35.53;94641.84;5074523;28;20047;-68
2022/08/26 10:37:07;;;;;;;18.25;5.35;;;;;;;30.07;34.00;94643.97;5074969;28;20044;-68
2022/08/26 10:39:59;;;;;;;17.20;5.93;;;;;;;30.51;32.97;94635.44;5074446;28;20040;-68
2022/08/26 10:42:32;;;;;;;18.38;6.40;;;;;;;30.84;33.36;94636.63;5076338;28;20054;-67
2022/08/26 10:45:05;;;;;;;20.27;6.90;;;;;;;31.18;33.53;94633.97;5077355;28;20135;-68
2022/08/26 10:47:46;;;;;;;12.52;6.10;;;;;;;31.15;31.58;94629.31;5063831;28;20643;-68
2022/08/26 10:50:13;;;;;;;21.20;11.48;;;;;;;31.19;31.14;94640.91;5079094;28;20056;-68
2022/08/26 10:53:08;;;;;;;15.13;6.47;;;;;;;31.43;31.72;94651.13;5080626;28;20059;-67
2022/08/26 10:55:44;;;;;;;15.13;5.47;;;;;;;31.43;31.79;94634.22;5076735;28;20101;-68
2022/08/26 10:58:30;;;;;;;14.10;5.68;;;;;;;31.55;32.41;94641.28;5078155;28;20036;-68
2022/08/26 11:01:44;;;;;;;10.30;4.63;;;;;;;30.83;31.01;94635.09;5079108;28;20796;-68
2022/08/26 11:04:20;;;;;;;18.02;8.50;;;;;;;30.35;31.47;94632.16;5076306;28;20532;-68
2022/08/26 11:06:48;;;;;;;13.98;5.30;;;;;;;30.36;32.07;94631.00;5079374;28;20071;-67
2022/08/26 11:09:43;;;;;;;12.02;5.43;;;;;;;30.67;30.79;94627.97;5077719;28;20040;-68
2022/08/26 11:12:56;;;;;;;19.13;6.00;;;;;;;30.76;31.91;94624.25;5075518;28;20059;-68
2022/08/26 11:15:23;;;;;;;19.10;6.47;;;;;;;31.02;30.17;94629.56;4997062;28;20179;-68
2022/08/26 11:17:50;;;;;;;12.93;5.50;;;;;;;31.33;29.39;94630.28;4995522;28;20064;-68
2022/08/26 11:20:26;;;;;;;14.63;5.70;;;;;;;31.73;28.81;94631.47;5037173;28;20059;-68
2022/08/26 11:22:55;;;;;;;15.23;6.68;;;;;;;32.15;29.72;94632.94;5071911;28;20036;-68
2022/08/26 11:25:25;;;;;;;19.90;5.80;;;;;;;32.56;27.05;94632.81;5072500;28;20124;-68
2022/08/26 11:27:58;;;;;;;20.80;5.03;;;;;;;33.20;25.92;94631.59;5077802;28;20486;-68
2022/08/26 11:30:41;;;;;;;19.40;5.50;;;;;;;33.65;26.37;94628.59;5077991;28;20044;-68
2022/08/26 11:33:08;;;;;;;12.85;4.65;;;;;;;33.99;23.59;94642.50;5077420;28;20044;-68
2022/08/26 11:35:36;;;;;;;18.10;5.03;;;;;;;34.26;24.01;94640.22;5081171;28;20048;-68
2022/08/26 11:38:14;;;;;;;17.75;5.05;;;;;;;34.49;22.63;94625.50;5076359;28;20055;-68
2022/08/26 11:40:41;;;;;;;14.93;4.57;;;;;;;34.81;23.82;94625.44;5079133;28;20132;-69
2022/08/26 11:43:18;;;;;;;10.30;4.40;;;;;;;34.69;22.85;94628.56;5076428;28;20043;-69
2022/08/26 11:46:07;;;;;;;11.23;4.45;;;;;;;34.44;23.96;94629.38;5078937;28;20040;-68